createdAt,value
2022-12-31T00:00:59.542Z,92.14
2022-12-31T00:03:26.506Z,92.74
2022-12-31T00:05:53.576Z,93.57
2022-12-31T00:08:20.356Z,93.59
2022-12-31T00:10:47.319Z,93.59
2022-12-31T00:13:14.565Z,93.43
2022-12-31T00:15:42.372Z,93.64
2022-12-31T00:18:09.765Z,94.00
2022-12-31T00:20:41.281Z,94.06
2022-12-31T00:23:09.699Z,94.21
2022-12-31T00:25:36.666Z,94.01
2022-12-31T00:28:04.783Z,94.00
2022-12-31T00:30:31.843Z,93.90
2022-12-31T00:32:59.251Z,93.92
2022-12-31T00:35:27.189Z,94.23
2022-12-31T00:37:54.055Z,94.28
2022-12-31T00:40:20.927Z,94.05
2022-12-31T00:42:47.747Z,93.50
2022-12-31T00:45:16.028Z,93.45
2022-12-31T00:47:42.774Z,93.40
2022-12-31T00:50:09.738Z,93.60
2022-12-31T00:52:36.612Z,93.34
2022-12-31T00:55:03.427Z,93.12
2022-12-31T00:57:30.365Z,92.96
2022-12-31T00:59:57.263Z,92.78
2022-12-31T01:02:24.369Z,93.01
2022-12-31T01:04:51.515Z,93.19
2022-12-31T01:07:18.386Z,93.14
2022-12-31T01:09:45.400Z,93.55
2022-12-31T01:12:12.445Z,93.27
2022-12-31T01:14:39.308Z,93.52
2022-12-31T01:17:06.189Z,93.44
2022-12-31T01:19:32.914Z,93.74
2022-12-31T01:21:59.803Z,94.26
2022-12-31T01:24:26.515Z,94.29
2022-12-31T01:26:56.475Z,94.33
2022-12-31T01:29:23.185Z,94.08
2022-12-31T01:31:50.366Z,94.24
2022-12-31T01:34:17.164Z,94.62
2022-12-31T01:36:43.975Z,94.72
2022-12-31T01:39:11.344Z,94.83
2022-12-31T01:41:40.959Z,94.61
2022-12-31T01:44:17.580Z,94.44
2022-12-31T01:46:47.734Z,94.70
2022-12-31T01:49:22.057Z,94.82
2022-12-31T01:51:51.823Z,95.55
2022-12-31T01:54:19.864Z,95.42
2022-12-31T01:56:48.278Z,95.28
2022-12-31T01:59:17.480Z,95.44
2022-12-31T02:01:46.779Z,95.45
2022-12-31T02:04:14.986Z,96.30
2022-12-31T02:06:44.752Z,96.23
2022-12-31T02:09:11.798Z,96.14
2022-12-31T02:11:38.696Z,96.09
2022-12-31T02:14:11.625Z,95.96
2022-12-31T02:16:53.364Z,96.05
2022-12-31T02:19:23.286Z,96.57
2022-12-31T02:21:55.881Z,96.38
2022-12-31T02:24:38.155Z,96.25
2022-12-31T02:27:09.259Z,96.62
2022-12-31T02:29:45.418Z,96.69
2022-12-31T02:32:16.577Z,96.93
2022-12-31T02:34:48.523Z,97.16
2022-12-31T02:37:16.559Z,96.89
2022-12-31T02:39:43.899Z,96.65
2022-12-31T02:42:11.190Z,96.40
2022-12-31T02:44:38.904Z,95.83
2022-12-31T02:47:07.430Z,96.04
2022-12-31T02:49:37.329Z,96.41
2022-12-31T02:52:12.992Z,96.76
2022-12-31T02:54:59.538Z,96.63
2022-12-31T02:57:30.975Z,96.19
2022-12-31T03:00:10.373Z,96.09
2022-12-31T03:02:39.926Z,96.59
2022-12-31T03:05:07.464Z,96.79
2022-12-31T03:07:34.390Z,96.42
2022-12-31T03:10:01.501Z,96.67
2022-12-31T03:12:40.246Z,96.12
2022-12-31T03:15:07.433Z,96.28
2022-12-31T03:17:34.678Z,97.04
2022-12-31T03:20:12.182Z,96.91
2022-12-31T03:22:40.703Z,96.75
2022-12-31T03:25:18.770Z,96.63
2022-12-31T03:27:45.877Z,96.53
2022-12-31T03:30:13.935Z,96.91
2022-12-31T03:32:40.958Z,97.09
2022-12-31T03:35:08.205Z,97.50
2022-12-31T03:37:34.851Z,97.68
2022-12-31T03:40:01.487Z,97.69
2022-12-31T03:42:28.283Z,97.91
2022-12-31T03:44:54.851Z,97.98
2022-12-31T03:47:21.549Z,98.13
2022-12-31T03:49:48.220Z,98.48
2022-12-31T03:52:14.853Z,98.31
2022-12-31T03:54:41.490Z,98.48
2022-12-31T03:57:08.269Z,98.83
2022-12-31T03:59:35.076Z,98.82
2022-12-31T04:02:02.047Z,98.93
2022-12-31T04:04:28.775Z,99.32
2022-12-31T04:06:55.426Z,99.49
2022-12-31T04:09:22.303Z,99.63
2022-12-31T04:11:48.980Z,99.64
2022-12-31T04:14:17.454Z,100.00
2022-12-31T04:16:44.700Z,100.00
2022-12-31T04:19:11.814Z,100.00
2022-12-31T04:21:38.608Z,100.00
2022-12-31T04:24:05.602Z,100.00
2022-12-31T04:26:32.343Z,100.00
2022-12-31T04:28:59.101Z,100.00
2022-12-31T04:31:25.867Z,100.00
2022-12-31T04:33:52.543Z,100.00
2022-12-31T04:36:19.184Z,100.00
2022-12-31T04:38:46.059Z,100.00
2022-12-31T04:41:22.850Z,100.00
2022-12-31T04:43:51.908Z,100.00
2022-12-31T04:46:20.213Z,100.00
2022-12-31T04:48:47.083Z,100.00
2022-12-31T04:51:14.247Z,100.00
2022-12-31T04:53:40.970Z,100.00
2022-12-31T04:56:08.046Z,100.00
2022-12-31T04:58:35.124Z,100.00
2022-12-31T05:01:01.908Z,100.00
2022-12-31T05:03:28.792Z,100.00
2022-12-31T05:06:00.216Z,100.00
2022-12-31T05:08:26.918Z,100.00
2022-12-31T05:10:53.594Z,100.00
2022-12-31T05:13:20.263Z,100.00
2022-12-31T05:15:47.181Z,100.00
2022-12-31T05:18:13.868Z,100.00
2022-12-31T05:20:40.479Z,100.00
2022-12-31T05:23:07.348Z,100.00
2022-12-31T05:25:34.331Z,100.00
2022-12-31T05:28:01.135Z,100.00
2022-12-31T05:30:27.872Z,100.00
2022-12-31T05:32:54.557Z,99.99
2022-12-31T05:35:21.194Z,99.64
2022-12-31T05:37:47.870Z,98.88
2022-12-31T05:40:14.627Z,98.43
2022-12-31T05:42:41.259Z,98.27
2022-12-31T05:45:08.309Z,97.81
2022-12-31T05:47:34.991Z,97.57
2022-12-31T05:50:01.624Z,97.08
2022-12-31T05:52:29.062Z,96.49
2022-12-31T05:54:55.654Z,96.34
2022-12-31T05:57:22.262Z,95.94
2022-12-31T05:59:49.504Z,95.77
2022-12-31T06:02:16.245Z,95.74
2022-12-31T06:04:43.140Z,95.52
2022-12-31T06:07:09.798Z,95.27
2022-12-31T06:09:36.654Z,95.04
2022-12-31T06:12:03.605Z,95.10
2022-12-31T06:14:30.233Z,94.49
2022-12-31T06:16:57.075Z,94.78
2022-12-31T06:19:24.113Z,94.67
2022-12-31T06:21:51.090Z,94.38
2022-12-31T06:24:18.139Z,94.42
2022-12-31T06:26:44.805Z,94.34
2022-12-31T06:29:11.633Z,94.01
2022-12-31T06:31:38.271Z,94.09
2022-12-31T06:34:05.095Z,94.01
2022-12-31T06:36:31.892Z,93.78
2022-12-31T06:38:58.609Z,93.80
2022-12-31T06:41:25.433Z,93.47
2022-12-31T06:43:52.189Z,93.36
2022-12-31T06:46:18.976Z,93.24
2022-12-31T06:48:45.793Z,93.06
2022-12-31T06:51:17.292Z,92.80
2022-12-31T06:53:46.317Z,92.40
2022-12-31T06:56:15.325Z,92.34
2022-12-31T06:58:42.469Z,92.10
2022-12-31T07:01:18.933Z,92.33
2022-12-31T07:03:46.817Z,92.45
2022-12-31T07:06:17.760Z,92.24
2022-12-31T07:08:45.590Z,92.31
2022-12-31T07:11:13.446Z,92.68
2022-12-31T07:13:43.290Z,92.70
2022-12-31T07:16:15.986Z,93.19
2022-12-31T07:18:53.268Z,93.58
2022-12-31T07:21:24.809Z,93.70
2022-12-31T07:23:51.893Z,93.88
2022-12-31T07:26:19.739Z,94.24
2022-12-31T07:28:46.607Z,94.22
2022-12-31T07:31:16.449Z,94.63
2022-12-31T07:33:43.699Z,95.52
2022-12-31T07:36:14.129Z,95.70
2022-12-31T07:38:42.568Z,95.72
2022-12-31T07:41:16.742Z,95.99
2022-12-31T07:43:45.272Z,95.86
2022-12-31T07:46:12.797Z,96.25
2022-12-31T07:48:39.817Z,96.47
2022-12-31T07:51:07.099Z,96.40
2022-12-31T07:53:34.814Z,96.32
2022-12-31T07:56:03.470Z,96.19
2022-12-31T07:58:32.860Z,96.54
2022-12-31T08:01:01.062Z,96.36
2022-12-31T08:03:38.019Z,96.39
2022-12-31T08:06:09.253Z,96.49
2022-12-31T08:08:47.117Z,96.39
2022-12-31T08:11:23.844Z,96.28
2022-12-31T08:13:53.166Z,96.08
2022-12-31T08:16:20.287Z,96.20
2022-12-31T08:18:48.005Z,95.85
2022-12-31T08:21:16.246Z,95.64
2022-12-31T08:23:47.497Z,95.30
2022-12-31T08:26:17.945Z,95.35
2022-12-31T08:28:53.735Z,95.02
2022-12-31T08:31:25.761Z,94.95
2022-12-31T08:34:02.034Z,94.84
2022-12-31T08:36:32.980Z,94.34
2022-12-31T08:39:09.731Z,94.13
2022-12-31T08:41:45.425Z,93.93
2022-12-31T08:44:21.800Z,93.84
2022-12-31T08:47:12.294Z,93.80
2022-12-31T08:49:43.698Z,93.81
2022-12-31T08:52:20.832Z,93.69
2022-12-31T08:54:48.239Z,93.75
2022-12-31T08:57:25.053Z,93.48
2022-12-31T08:59:55.574Z,93.64
2022-12-31T09:02:32.811Z,93.97
2022-12-31T09:05:09.682Z,94.03
2022-12-31T09:07:40.106Z,94.01
2022-12-31T09:10:17.618Z,94.14
2022-12-31T09:12:57.335Z,94.10
2022-12-31T09:15:32.489Z,94.12
2022-12-31T09:18:00.358Z,94.72
2022-12-31T09:20:42.372Z,94.48
2022-12-31T09:23:11.899Z,94.47
2022-12-31T09:25:43.835Z,94.65
2022-12-31T09:28:22.730Z,94.69
2022-12-31T09:30:55.499Z,94.58
2022-12-31T09:33:32.144Z,94.56
2022-12-31T09:36:03.285Z,94.70
2022-12-31T09:38:41.128Z,94.40
2022-12-31T09:41:17.055Z,94.29
2022-12-31T09:43:58.949Z,94.51
2022-12-31T09:46:32.585Z,94.50
2022-12-31T09:49:07.799Z,94.56
2022-12-31T09:51:48.031Z,94.57
2022-12-31T09:54:19.969Z,94.42
2022-12-31T09:56:58.846Z,94.32
2022-12-31T09:59:40.206Z,94.25
2022-12-31T10:02:16.729Z,94.49
2022-12-31T10:04:52.978Z,94.93
2022-12-31T10:07:26.840Z,95.27
2022-12-31T10:10:02.356Z,95.51
2022-12-31T10:12:29.346Z,95.78
2022-12-31T10:15:05.575Z,95.89
2022-12-31T10:17:41.890Z,96.20
2022-12-31T10:20:18.900Z,96.68
2022-12-31T10:22:55.633Z,96.77
2022-12-31T10:25:38.737Z,96.94
2022-12-31T10:28:14.679Z,96.92
2022-12-31T10:30:48.594Z,97.35
2022-12-31T10:33:20.460Z,97.35
2022-12-31T10:35:48.448Z,97.63
2022-12-31T10:38:22.766Z,97.84
2022-12-31T10:41:02.121Z,97.79
2022-12-31T10:43:44.710Z,97.77
2022-12-31T10:46:23.139Z,97.97
2022-12-31T10:48:59.854Z,98.07
2022-12-31T10:51:36.587Z,98.25
2022-12-31T10:54:12.550Z,98.42
2022-12-31T10:56:48.644Z,98.47
2022-12-31T10:59:22.889Z,98.72
2022-12-31T11:02:05.177Z,99.21
2022-12-31T11:04:45.551Z,99.86
2022-12-31T11:07:12.173Z,100.00
2022-12-31T11:09:47.381Z,100.00
2022-12-31T11:12:27.101Z,100.00
2022-12-31T11:15:13.838Z,100.00
2022-12-31T11:17:50.140Z,100.00
2022-12-31T11:20:24.225Z,100.00
2022-12-31T11:23:05.719Z,100.00
2022-12-31T11:25:44.800Z,100.00
2022-12-31T11:28:14.252Z,100.00
2022-12-31T11:30:58.236Z,100.00
2022-12-31T11:33:35.226Z,100.00
2022-12-31T11:36:14.616Z,100.00
2022-12-31T11:38:47.345Z,100.00
2022-12-31T11:41:26.075Z,100.00
2022-12-31T11:43:55.763Z,100.00
2022-12-31T11:46:43.938Z,100.00
2022-12-31T11:49:13.902Z,100.00
2022-12-31T11:51:50.038Z,100.00
2022-12-31T11:54:38.800Z,100.00
2022-12-31T11:57:18.433Z,100.00
2022-12-31T11:59:47.041Z,100.00
2022-12-31T12:02:27.103Z,100.00
2022-12-31T12:04:59.070Z,100.00
2022-12-31T12:07:28.469Z,100.00
2022-12-31T12:10:02.935Z,100.00
2022-12-31T12:12:41.273Z,100.00
2022-12-31T12:15:11.379Z,100.00
2022-12-31T12:17:40.191Z,100.00
2022-12-31T12:20:22.975Z,100.00
2022-12-31T12:23:01.359Z,100.00
2022-12-31T12:25:41.269Z,100.00
2022-12-31T12:28:22.032Z,100.00
2022-12-31T12:31:00.455Z,100.00
2022-12-31T12:33:35.202Z,100.00
2022-12-31T12:36:10.918Z,100.00
2022-12-31T12:38:37.977Z,100.00
2022-12-31T12:41:11.425Z,100.00
2022-12-31T12:43:40.756Z,100.00
2022-12-31T12:46:21.215Z,100.00
2022-12-31T12:48:49.754Z,100.00
2022-12-31T12:51:24.018Z,100.00
2022-12-31T12:54:00.825Z,100.00
2022-12-31T12:56:30.783Z,100.00
2022-12-31T12:59:04.283Z,100.00
2022-12-31T13:01:43.220Z,100.00
2022-12-31T13:04:34.052Z,100.00
2022-12-31T13:07:18.589Z,100.00
2022-12-31T13:10:05.658Z,100.00
2022-12-31T13:13:22.220Z,100.00
2022-12-31T13:15:37.861Z,100.00
2022-12-31T13:18:22.245Z,100.00
2022-12-31T13:20:58.159Z,100.00
2022-12-31T13:23:39.816Z,100.00
2022-12-31T13:26:12.130Z,100.00
2022-12-31T13:29:00.781Z,100.00
2022-12-31T13:31:32.547Z,100.00
2022-12-31T13:34:07.116Z,100.00
2022-12-31T13:36:38.984Z,100.00
2022-12-31T13:39:07.752Z,100.00
2022-12-31T13:41:43.659Z,100.00
2022-12-31T13:44:22.068Z,100.00
2022-12-31T13:46:54.898Z,100.00
2022-12-31T13:49:32.462Z,100.00
2022-12-31T13:52:12.368Z,100.00
2022-12-31T13:54:56.461Z,100.00
2022-12-31T13:57:23.056Z,100.00
2022-12-31T13:59:56.795Z,100.00
2022-12-31T14:02:38.396Z,100.00
2022-12-31T14:05:16.847Z,100.00
2022-12-31T14:07:47.699Z,100.00
2022-12-31T14:10:26.587Z,100.00
2022-12-31T14:13:03.288Z,100.00
2022-12-31T14:15:39.763Z,100.00
2022-12-31T14:18:21.602Z,100.00
2022-12-31T14:20:56.850Z,100.00
2022-12-31T14:23:32.130Z,100.00
2022-12-31T14:26:07.073Z,100.00
2022-12-31T14:28:55.841Z,100.00
2022-12-31T14:31:26.676Z,100.00
2022-12-31T14:33:58.397Z,100.00
2022-12-31T14:36:33.878Z,100.00
2022-12-31T14:39:08.544Z,100.00
2022-12-31T14:41:36.807Z,100.00
2022-12-31T14:44:09.111Z,100.00
2022-12-31T14:46:36.145Z,100.00
2022-12-31T14:49:15.551Z,100.00
2022-12-31T14:51:42.516Z,100.00
2022-12-31T14:54:18.527Z,100.00
2022-12-31T14:56:45.970Z,100.00
2022-12-31T14:59:22.859Z,100.00
2022-12-31T15:01:49.758Z,100.00
2022-12-31T15:04:16.799Z,100.00
2022-12-31T15:06:52.927Z,100.00
2022-12-31T15:09:29.576Z,100.00
2022-12-31T15:12:06.206Z,99.57
2022-12-31T15:14:40.335Z,99.38
2022-12-31T15:17:06.947Z,99.32
2022-12-31T15:19:42.237Z,99.18
2022-12-31T15:22:25.121Z,99.39
2022-12-31T15:24:51.855Z,99.29
2022-12-31T15:27:31.398Z,99.38
2022-12-31T15:29:58.105Z,99.40
2022-12-31T15:32:29.876Z,98.90
2022-12-31T15:35:06.038Z,97.62
2022-12-31T15:37:35.122Z,96.91
2022-12-31T15:40:17.391Z,96.32
2022-12-31T15:42:51.207Z,96.01
2022-12-31T15:45:26.856Z,96.29
2022-12-31T15:47:58.677Z,95.50
2022-12-31T15:50:28.535Z,95.49
2022-12-31T15:53:01.079Z,95.79
2022-12-31T15:55:28.554Z,96.24
2022-12-31T15:58:00.561Z,96.20
2022-12-31T16:00:31.725Z,96.35
2022-12-31T16:03:01.721Z,96.68
2022-12-31T16:05:38.905Z,97.03
2022-12-31T16:08:08.913Z,97.59
2022-12-31T16:10:38.484Z,98.53
2022-12-31T16:13:07.179Z,98.94
2022-12-31T16:15:40.924Z,99.08
2022-12-31T16:18:25.839Z,98.93
2022-12-31T16:20:57.657Z,99.04
2022-12-31T16:23:29.211Z,98.57
2022-12-31T16:26:07.288Z,99.00
2022-12-31T16:28:35.817Z,99.21
2022-12-31T16:31:06.117Z,98.94
2022-12-31T16:33:37.113Z,98.51
2022-12-31T16:36:05.581Z,98.70
2022-12-31T16:38:34.301Z,98.83
2022-12-31T16:41:11.741Z,98.89
2022-12-31T16:43:49.015Z,99.18
2022-12-31T16:46:28.209Z,99.64
2022-12-31T16:48:58.465Z,99.74
2022-12-31T16:51:36.741Z,100.00
2022-12-31T16:54:05.830Z,100.00
2022-12-31T16:56:37.836Z,100.00
2022-12-31T16:59:30.436Z,100.00
2022-12-31T17:02:07.084Z,100.00
2022-12-31T17:04:53.541Z,100.00
2022-12-31T17:07:25.917Z,100.00
2022-12-31T17:10:09.384Z,100.00
2022-12-31T17:13:17.091Z,100.00
2022-12-31T17:15:44.699Z,100.00
2022-12-31T17:18:25.362Z,100.00
2022-12-31T17:20:54.509Z,100.00
2022-12-31T17:23:27.304Z,100.00
2022-12-31T17:26:05.872Z,100.00
2022-12-31T17:28:45.304Z,100.00
2022-12-31T17:31:26.795Z,100.00
2022-12-31T17:33:54.850Z,100.00
2022-12-31T17:36:27.694Z,100.00
2022-12-31T17:38:58.182Z,100.00
2022-12-31T17:41:28.276Z,100.00
2022-12-31T17:43:56.178Z,100.00
2022-12-31T17:46:29.635Z,100.00
2022-12-31T17:49:00.635Z,100.00
2022-12-31T17:51:41.271Z,100.00
2022-12-31T17:54:23.094Z,100.00
2022-12-31T17:56:52.804Z,100.00
2022-12-31T17:59:25.945Z,100.00
2022-12-31T18:02:04.780Z,100.00
2022-12-31T18:04:31.662Z,100.00
2022-12-31T18:06:59.417Z,100.00
2022-12-31T18:09:28.181Z,100.00
2022-12-31T18:12:01.469Z,100.00
2022-12-31T18:14:28.722Z,100.00
2022-12-31T18:17:00.246Z,100.00
2022-12-31T18:20:04.882Z,100.00
2022-12-31T18:22:35.369Z,100.00
2022-12-31T18:25:03.625Z,100.00
2022-12-31T18:27:33.744Z,100.00
2022-12-31T18:30:05.802Z,100.00
2022-12-31T18:32:38.046Z,100.00
2022-12-31T18:35:17.038Z,100.00
2022-12-31T18:37:59.479Z,100.00
2022-12-31T18:40:28.319Z,100.00
2022-12-31T18:43:01.123Z,100.00
2022-12-31T18:45:32.183Z,100.00
2022-12-31T18:48:00.025Z,100.00
2022-12-31T18:50:28.515Z,100.00
2022-12-31T18:52:56.723Z,100.00
2022-12-31T18:55:27.189Z,100.00
2022-12-31T18:57:58.265Z,100.00
2022-12-31T19:00:26.992Z,100.00
2022-12-31T19:02:55.956Z,100.00
2022-12-31T19:05:24.362Z,100.00
2022-12-31T19:07:59.439Z,100.00
2022-12-31T19:10:29.382Z,100.00
2022-12-31T19:12:56.029Z,100.00
2022-12-31T19:15:38.334Z,100.00
2022-12-31T19:18:05.526Z,100.00
2022-12-31T19:20:34.748Z,100.00
2022-12-31T19:23:04.315Z,100.00
2022-12-31T19:25:34.445Z,100.00
2022-12-31T19:28:06.360Z,100.00
2022-12-31T19:30:34.036Z,100.00
2022-12-31T19:33:00.831Z,100.00
2022-12-31T19:35:30.748Z,100.00
2022-12-31T19:37:57.459Z,99.71
2022-12-31T19:40:25.960Z,99.07
2022-12-31T19:42:57.133Z,98.64
2022-12-31T19:45:25.930Z,97.73
2022-12-31T19:47:56.373Z,97.53
2022-12-31T19:50:28.735Z,97.13
2022-12-31T19:53:00.110Z,96.65
2022-12-31T19:55:29.204Z,95.99
2022-12-31T19:57:57.853Z,95.80
2022-12-31T20:00:25.828Z,95.63
2022-12-31T20:02:54.117Z,95.21
2022-12-31T20:05:28.204Z,94.59
2022-12-31T20:07:58.170Z,94.36
2022-12-31T20:10:25.611Z,94.14
2022-12-31T20:12:53.361Z,93.94
2022-12-31T20:15:22.152Z,93.76
2022-12-31T20:17:49.827Z,93.06
2022-12-31T20:20:18.393Z,93.09
2022-12-31T20:22:47.598Z,92.75
2022-12-31T20:25:15.698Z,92.79
2022-12-31T20:27:45.773Z,92.59
2022-12-31T20:30:17.493Z,92.40
2022-12-31T20:32:45.143Z,92.45
2022-12-31T20:35:20.329Z,91.81
2022-12-31T20:37:47.084Z,91.35
2022-12-31T20:40:24.454Z,91.20
2022-12-31T20:42:51.225Z,90.75
2022-12-31T20:45:18.333Z,90.41
2022-12-31T20:47:45.116Z,90.05
2022-12-31T20:50:12.657Z,89.87
2022-12-31T20:52:40.047Z,89.82
2022-12-31T20:55:14.492Z,89.52
2022-12-31T20:57:44.300Z,89.41
2022-12-31T21:00:12.395Z,88.89
2022-12-31T21:02:43.512Z,88.24
2022-12-31T21:05:12.059Z,88.00
2022-12-31T21:07:41.127Z,88.25
2022-12-31T21:10:08.802Z,88.28
2022-12-31T21:12:45.629Z,87.96
2022-12-31T21:15:13.567Z,87.50
2022-12-31T21:17:41.755Z,87.39
2022-12-31T21:20:08.696Z,87.44
2022-12-31T21:22:35.499Z,87.42
2022-12-31T21:25:03.072Z,87.62
2022-12-31T21:27:31.634Z,86.64
2022-12-31T21:32:46.674Z,85.68
2022-12-31T21:35:42.349Z,85.71
2022-12-31T21:38:08.297Z,85.46
2022-12-31T21:40:35.720Z,85.17
2022-12-31T21:43:03.481Z,85.20
2022-12-31T21:45:31.000Z,84.50
2022-12-31T21:48:11.268Z,84.49
2022-12-31T21:50:40.008Z,84.39
2022-12-31T21:53:07.628Z,84.38
2022-12-31T21:55:50.417Z,84.77
2022-12-31T21:58:26.402Z,85.31
2022-12-31T22:01:06.151Z,85.98
2022-12-31T22:03:33.677Z,85.21
2022-12-31T22:06:10.769Z,85.15
2022-12-31T22:08:38.381Z,84.54
2022-12-31T22:11:06.164Z,84.84
2022-12-31T22:13:33.265Z,85.57
2022-12-31T22:16:05.326Z,85.21
2022-12-31T22:18:35.661Z,84.82
2022-12-31T22:21:04.674Z,85.22
2022-12-31T22:23:32.459Z,85.50
2022-12-31T22:25:59.136Z,85.37
2022-12-31T22:28:38.586Z,85.77
2022-12-31T22:31:06.849Z,85.84
2022-12-31T22:33:33.707Z,85.51
2022-12-31T22:36:01.887Z,85.26
2022-12-31T22:38:29.383Z,85.57
2022-12-31T22:41:06.364Z,85.55
2022-12-31T22:43:34.330Z,84.80
2022-12-31T22:46:12.730Z,85.09
2022-12-31T22:48:40.573Z,85.31
2022-12-31T22:51:09.271Z,86.10
2022-12-31T22:53:39.744Z,86.12
2022-12-31T22:56:08.474Z,86.27
2022-12-31T22:58:36.442Z,86.36
2022-12-31T23:01:05.615Z,85.96
2022-12-31T23:03:33.149Z,85.62
2022-12-31T23:06:05.595Z,85.60
2022-12-31T23:08:34.346Z,85.08
2022-12-31T23:11:01.716Z,84.78
2022-12-31T23:13:42.139Z,85.24
2022-12-31T23:16:25.962Z,83.95
2022-12-31T23:19:11.790Z,83.52
2022-12-31T23:21:48.438Z,84.05
2022-12-31T23:24:21.461Z,84.13
2022-12-31T23:26:51.568Z,83.98
2022-12-31T23:29:22.646Z,85.07
2022-12-31T23:31:49.419Z,85.44
2022-12-31T23:34:16.458Z,84.86
2022-12-31T23:36:43.235Z,84.57
2022-12-31T23:39:09.923Z,85.09
2022-12-31T23:41:40.378Z,85.56
2022-12-31T23:44:07.433Z,85.82
2022-12-31T23:46:34.172Z,85.90
2022-12-31T23:49:00.808Z,85.79
2022-12-31T23:51:27.455Z,85.54
2022-12-31T23:53:54.295Z,85.86
2022-12-31T23:56:23.885Z,85.57
2022-12-31T23:58:55.234Z,85.84
